Glace Bay, Canada
Current Conditions -  °F | °C
As of 5:00 AM on Friday 19 Dec 2014 (Local Time) from CYQY Reporting Station
Scattered Clouds Scattered Clouds  
Wind Chill: 24°   Ceiling: Unl
Heat Index: 32°   Visibility: 15mi
Dew Point: 30°   Wind: 9mph
Humidity: 93%   Direction: 230°SW
Pressure: 29.4"   Gusts: NA
Location:  46.2°N, 59.96°W
Report Text: CYQY 190900Z 23008KT 15SM FEW010 FEW080 SCT170 00/M01 A2940 RMK ST1AC1AC1 SLP958
Loading
Personal Weather Stations






























Interactive Weather Map New forecast layout! Learn more

10-Day Weather Forecast

Advertisements
Track Severe Weather on mobile